Metar z połowy godziny Komunikat METAR ze strony awiacja.imgw.pl Metar Mil EPKS METAR EPKS 261230Z 29014KT 9999 BKN018 BKN063 02/00 Q1009 RMK 017 089 7/5=